• Join FlightAware (Why Join?)
  • Login
  • US Flag 
03:24AM EDT


 

Airport Tracker/Info


-or-


 

Live Flight TrackerFlight Track Log ✈ SWA691 ✈ 31-Aug-2013 ✈ KPIT - KTPA

Flight Track Log - Related Links

Times and Time Zones

All times are in EDT time to prevent confusion due to time zone crossing. See the SWA691 flight status page for this flight to view local times or setup timezone preferences in your user account.

Time Position Orientation Groundspeed Altitude Reporting Facility
EDT Latitude Longitude Course Direction KTS MPH feet Rate Location/Type
07:21AM 40.2775 -80.3056 180° South 326 375 10,500  Level Cleveland Center
07:22AM 40.1897 -80.2897 172° South 303 349 13,900 1,980 Climbing Cleveland Center
07:23AM 40.1083 -80.2464 158° South 308 354 14,500 1,920 Climbing Cleveland Center
07:24AM 39.9641 -80.2333 180° South  Level FlightAware Approximate
07:24AM 40.0353 -80.2061 157° South 308 354 17,800  Level Cleveland Center
07:25AM 39.8702 -80.2439 187° South  Level FlightAware Approximate
07:25AM 39.9475 -80.1633 160° South 313 360 20,300  Level Cleveland Center
07:26AM 39.7762 -80.2500 180° South  Level FlightAware Approximate
07:27AM 39.7006 -80.0875 167° South 380 437 24,200  Level Washington Center
07:28AM 39.5911 -80.1186 192° South 397 457 25,900 2,100 Climbing Washington Center
07:29AM 39.4808 -80.1708 200° South 402 463 28,400 1,440 Climbing Washington Center
07:30AM 39.3706 -80.2203 199° South 409 471 28,900 900 Climbing Washington Center
07:31AM 39.2475 -80.2714 198° South 439 505 30,200 1,380 Climbing Washington Center
07:32AM 39.1211 -80.3086 193° South 457 526 31,700 1,620 Climbing Washington Center
07:33AM 38.9925 -80.3458 193° South 469 540 33,500 1,620 Climbing Washington Center
07:34AM 38.8681 -80.3831 193° South 469 540 35,000 720 Climbing Washington Center
07:35AM 38.7644 -80.4136 193° South 474 545 35,000  Level Washington Center
07:36AM 38.6228 -80.4628 195° South 484 557 35,000  Level Washington Center
07:37AM 38.4794 -80.5036 193° South 478 550 35,000  Level Washington Center
07:38AM 38.3569 -80.5381 192° South 471 542 35,100 900 Climbing Washington Center
07:39AM 38.2272 -80.5506 184° South 471 542 36,800 1,380 Climbing Washington Center
07:40AM 38.0969 -80.5708 187° South 471 542 37,900 540 Climbing Washington Center
07:41AM 37.9797 -80.5817 184° South 471 542 38,000  Climbing Washington Center
07:42AM 37.8519 -80.5967 185° South 471 542 38,000  Level Washington Center
07:43AM 37.7219 -80.6144 186° South 466 536 38,000  Level Washington Center
07:45AM 37.5019 -80.6386 185° South 470 541 38,000  Level Atlanta Center
07:46AM 37.3731 -80.6544 186° South 470 541 38,000  Level Atlanta Center
07:47AM 37.2569 -80.6675 185° South 470 541 38,000  Level Atlanta Center
07:48AM 37.1322 -80.6831 186° South 464 534 38,000  Level Atlanta Center
07:49AM 37.0033 -80.6964 185° South 464 534 38,000  Level Atlanta Center
07:50AM 36.8767 -80.7122 186° South 459 528 38,000  Level Atlanta Center
07:51AM 36.7497 -80.7225 184° South 454 522 38,000  Level Atlanta Center
07:52AM 36.6228 -80.7356 185° South 454 522 38,000  Level Atlanta Center
07:53AM 36.4961 -80.7514 186° South 462 532 38,000  Level Atlanta Center
07:54AM 36.3567 -80.7697 186° South 462 532 38,000  Level Atlanta Center
07:55AM 36.2278 -80.7853 186° South 462 532 38,000  Level Atlanta Center
07:56AM 36.0969 -80.7983 185° South 462 532 38,000  Level Atlanta Center
07:57AM 35.9700 -80.8161 186° South 462 532 38,000  Level Atlanta Center
07:58AM 35.8436 -80.8469 191° South 462 532 38,000  Level Atlanta Center
07:59AM 35.7214 -80.8822 193° South 462 532 38,000  Level Atlanta Center
08:00AM 35.5931 -80.9206 194° South 469 540 38,000  Level Atlanta Center
08:01AM 35.4814 -80.9528 193° South 469 540 38,000  Level Atlanta Center
08:02AM 35.3572 -80.9931 195° South 469 540 38,000  Level Atlanta Center
08:03AM 35.2350 -81.0306 194° South 462 532 38,000  Level Atlanta Center
08:04AM 35.0983 -81.0736 194° South 462 532 38,000  Level Atlanta Center
08:05AM 34.9761 -81.1111 194° South 462 532 38,000  Level Atlanta Center
08:06AM 34.8539 -81.1483 194° South 457 526 38,000  Level Atlanta Center
08:08AM 34.5931 -81.2231 193° South 461 531 38,000  Level Jacksonville Center
08:09AM 34.4706 -81.2606 194° South 456 525 38,000  Level Jacksonville Center
08:10AM 34.3603 -81.2928 194° South 456 525 38,000  Level Jacksonville Center
08:11AM 34.2419 -81.3253 193° South 451 519 38,000  Level Jacksonville Center
08:12AM 34.1172 -81.3600 193° South 456 525 38,000  Level Jacksonville Center
08:13AM 33.9944 -81.3972 194° South 456 525 38,000  Level Jacksonville Center
08:14AM 33.8717 -81.4319 193° South 456 525 38,000  Level Jacksonville Center
08:15AM 33.7489 -81.4639 192° South 451 519 38,000  Level Jacksonville Center
08:16AM 33.6242 -81.4908 190° South 451 519 38,000  Level Jacksonville Center
08:17AM 33.4950 -81.5203 191° South 457 526 38,000  Level Jacksonville Center
08:18AM 33.3700 -81.5469 190° South 462 532 38,000  Level Jacksonville Center
08:19AM 33.2453 -81.5761 191° South 462 532 38,000  Level Jacksonville Center
08:20AM 33.1058 -81.6131 193° South 467 537 38,000  Level Jacksonville Center
08:21AM 32.9786 -81.6394 190° South 467 537 38,000  Level Jacksonville Center
08:22AM 32.8536 -81.6686 191° South 467 537 38,000  Level Jacksonville Center
08:23AM 32.7369 -81.6875 188° South 467 537 38,000  Level Jacksonville Center
08:24AM 32.6058 -81.7211 192° South 462 532 38,000  Level Jacksonville Center
08:25AM 32.4933 -81.7447 190° South 457 526 38,000  Level Jacksonville Center
08:26AM 32.3558 -81.7786 192° South 462 532 38,000  Level Jacksonville Center
08:27AM 32.2453 -81.8019 190° South 462 532 38,000  Level Jacksonville Center
08:28AM 32.1078 -81.8306 190° South 468 539 38,000  Level Jacksonville Center
08:29AM 31.9828 -81.8564 190° South 461 531 38,000  Level Jacksonville Center
08:30AM 31.8722 -81.8797 190° South 461 531 38,000  Level Jacksonville Center
08:31AM 31.7367 -81.9081 190° South 466 536 38,000  Level Jacksonville Center
08:32AM 31.6242 -81.9314 190° South 466 536 38,000  Level Jacksonville Center
08:33AM 31.4867 -81.9619 191° South 462 532 38,000  Level Jacksonville Center
08:34AM 31.3594 -81.9900 191° South 462 532 38,000  Level Jacksonville Center
08:35AM 31.2364 -82.0178 191° South 462 532 38,000  Level Jacksonville Center
08:36AM 31.1114 -82.0458 191° South 467 537 38,000  Level Jacksonville Center
08:37AM 30.9842 -82.0686 189° South 467 537 38,000  Level Jacksonville Center
08:38AM 30.8592 -82.0964 191° South 467 537 38,000  Level Jacksonville Center
08:39AM 30.7339 -82.1217 190° South 467 537 38,000  Level Jacksonville Center
08:40AM 30.6089 -82.1492 191° South 467 537 38,000  Level Jacksonville Center
08:41AM 30.4961 -82.1669 188° South 467 537 38,000  Level Jacksonville Center
08:42AM 30.3731 -82.1944 191° South 467 537 38,000  Level Jacksonville Center
08:43AM 30.2458 -82.2194 190° South 467 537 38,000 -180 Level Jacksonville Center
08:44AM 30.1208 -82.2467 191° South 467 537 37,700 -1,500 Descending Jacksonville Center
08:45AM 29.9831 -82.2811 192° South 467 537 35,100 -2,760 Descending Jacksonville Center
08:46AM 29.8581 -82.3058 190° South 467 537 32,200 -2,700 Descending Jacksonville Center
08:47AM 29.7453 -82.3233 188° South 467 537 29,800 -2,400 Descending Jacksonville Center
08:48AM 29.6244 -82.3503 191° South 462 532 27,500 -1,620 Descending Jacksonville Center
08:49AM 29.5011 -82.3461 178° South 456 525 26,600 -960 Descending Jacksonville Center
08:50AM 29.3822 -82.3372 176° South 445 512 25,600 -1,680 Descending Jacksonville Center
08:51AM 29.2672 -82.3214 173° South 434 499 23,300 -2,400 Descending Jacksonville Center
08:52AM 29.1400 -82.3078 175° South 423 487 20,800 -2,340 Descending Jacksonville Center
08:53AM 29.0314 -82.2942 174° South 417 480 18,700 -2,340 Descending Jacksonville Center
08:54AM 28.9247 -82.2806 174° South 404 465 16,200 -2,460 Descending Jacksonville Center
08:55AM 28.8203 -82.2669 173° South 387 445 13,800 -1,260 Descending Jacksonville Center
08:57AM 28.6333 -82.2500 175° South 293 337 12,300 -1,080 Descending Tampa TRACON
08:58AM 28.5500 -82.2500 180° South 300 345 10,600 -1,560 Descending Tampa TRACON
08:59AM 28.4667 -82.2500 180° South 296 341 9,200 -840 Descending Tampa TRACON
09:00AM 28.3833 -82.2500 180° South 284 327 9,000 -900 Descending Tampa TRACON
09:01AM 28.3167 -82.3000 213° Southwest 280 322 7,400 -1,500 Descending Tampa TRACON
09:02AM 28.2667 -82.3667 230° Southwest 274 315 6,000 -1,500 Descending Tampa TRACON
09:03AM 28.2167 -82.4333 230° Southwest 270 311 4,500 -1,500 Descending Tampa TRACON
09:04AM 28.1667 -82.4833 221° Southwest 266 306 3,000 -900 Descending Tampa TRACON
09:05AM 28.1167 -82.5333 221° Southwest 207 238 2,700 -780 Descending Tampa TRACON
09:06AM 28.0667 -82.5333 180° South 175 201 1,500 -1,020 Descending Tampa TRACON
09:07AM 28.0333 -82.5333 180° South 131 151 700 -840 Descending Tampa TRACON